sensor_id;sensor_type;location;lat;lon;timestamp;P1;durP1;ratioP1;P2;durP2;ratioP2
60088;SDS011;45961;53.574;55.878;2023-06-22T00:00:33;5.57;;;3.90;;
60088;SDS011;45961;53.574;55.878;2023-06-22T00:01:34;6.35;;;4.13;;
60088;SDS011;45961;53.574;55.878;2023-06-22T00:02:35;6.70;;;4.05;;
60088;SDS011;45961;53.574;55.878;2023-06-22T00:03:36;5.72;;;3.92;;
60088;SDS011;45961;53.574;55.878;2023-06-22T00:04:37;5.13;;;3.67;;
60088;SDS011;45961;53.574;55.878;2023-06-22T00:05:38;11.05;;;5.32;;
60088;SDS011;45961;53.574;55.878;2023-06-22T00:06:39;6.50;;;4.47;;
60088;SDS011;45961;53.574;55.878;2023-06-22T00:07:40;7.40;;;4.00;;
60088;SDS011;45961;53.574;55.878;2023-06-22T00:08:41;7.57;;;4.32;;
60088;SDS011;45961;53.574;55.878;2023-06-22T00:09:42;7.57;;;4.20;;
60088;SDS011;45961;53.574;55.878;2023-06-22T00:10:43;7.60;;;4.47;;
60088;SDS011;45961;53.574;55.878;2023-06-22T00:11:44;6.80;;;4.03;;
60088;SDS011;45961;53.574;55.878;2023-06-22T00:12:45;8.40;;;4.40;;
60088;SDS011;45961;53.574;55.878;2023-06-22T00:13:46;6.40;;;4.43;;
60088;SDS011;45961;53.574;55.878;2023-06-22T00:14:48;6.78;;;4.05;;
60088;SDS011;45961;53.574;55.878;2023-06-22T00:15:49;5.80;;;4.05;;
60088;SDS011;45961;53.574;55.878;2023-06-22T00:16:50;5.82;;;4.03;;
60088;SDS011;45961;53.574;55.878;2023-06-22T00:17:55;6.75;;;4.45;;
60088;SDS011;45961;53.574;55.878;2023-06-22T00:18:57;6.22;;;4.20;;
60088;SDS011;45961;53.574;55.878;2023-06-22T00:20:00;6.88;;;4.60;;
60088;SDS011;45961;53.574;55.878;2023-06-22T00:21:01;6.90;;;4.13;;
60088;SDS011;45961;53.574;55.878;2023-06-22T00:22:02;5.70;;;4.43;;
60088;SDS011;45961;53.574;55.878;2023-06-22T00:23:04;5.93;;;4.18;;
60088;SDS011;45961;53.574;55.878;2023-06-22T00:24:09;5.43;;;3.95;;
60088;SDS011;45961;53.574;55.878;2023-06-22T00:25:10;6.78;;;4.28;;
60088;SDS011;45961;53.574;55.878;2023-06-22T00:26:12;4.60;;;3.88;;
60088;SDS011;45961;53.574;55.878;2023-06-22T00:27:13;7.22;;;4.60;;
60088;SDS011;45961;53.574;55.878;2023-06-22T00:28:14;5.93;;;4.15;;
60088;SDS011;45961;53.574;55.878;2023-06-22T00:29:16;6.32;;;4.10;;
60088;SDS011;45961;53.574;55.878;2023-06-22T00:30:19;5.75;;;4.10;;
60088;SDS011;45961;53.574;55.878;2023-06-22T00:31:20;5.47;;;4.07;;
60088;SDS011;45961;53.574;55.878;2023-06-22T00:32:21;6.57;;;4.07;;
60088;SDS011;45961;53.574;55.878;2023-06-22T00:33:22;7.53;;;4.93;;
60088;SDS011;45961;53.574;55.878;2023-06-22T00:34:23;6.78;;;4.20;;
60088;SDS011;45961;53.574;55.878;2023-06-22T00:35:24;5.97;;;4.32;;
60088;SDS011;45961;53.574;55.878;2023-06-22T00:36:32;5.88;;;4.43;;
60088;SDS011;45961;53.574;55.878;2023-06-22T00:37:33;8.43;;;4.85;;
60088;SDS011;45961;53.574;55.878;2023-06-22T00:38:34;6.68;;;4.13;;
60088;SDS011;45961;53.574;55.878;2023-06-22T00:39:36;6.35;;;4.40;;
60088;SDS011;45961;53.574;55.878;2023-06-22T00:40:37;5.32;;;4.50;;
60088;SDS011;45961;53.574;55.878;2023-06-22T00:41:38;6.93;;;4.10;;
60088;SDS011;45961;53.574;55.878;2023-06-22T00:42:39;6.43;;;4.25;;
60088;SDS011;45961;53.574;55.878;2023-06-22T00:43:40;7.22;;;3.92;;
60088;SDS011;45961;53.574;55.878;2023-06-22T00:44:42;6.72;;;4.65;;
60088;SDS011;45961;53.574;55.878;2023-06-22T00:45:44;6.68;;;4.47;;
60088;SDS011;45961;53.574;55.878;2023-06-22T00:46:45;6.05;;;4.22;;
60088;SDS011;45961;53.574;55.878;2023-06-22T00:47:46;4.90;;;4.03;;
60088;SDS011;45961;53.574;55.878;2023-06-22T00:48:47;5.82;;;4.38;;
60088;SDS011;45961;53.574;55.878;2023-06-22T00:49:49;11.60;;;5.15;;
60088;SDS011;45961;53.574;55.878;2023-06-22T00:50:53;6.05;;;3.97;;
60088;SDS011;45961;53.574;55.878;2023-06-22T00:51:57;6.22;;;4.05;;
60088;SDS011;45961;53.574;55.878;2023-06-22T00:54:08;6.05;;;4.43;;
60088;SDS011;45961;53.574;55.878;2023-06-22T00:55:10;6.53;;;4.32;;
60088;SDS011;45961;53.574;55.878;2023-06-22T00:56:11;6.32;;;4.18;;
60088;SDS011;45961;53.574;55.878;2023-06-22T00:57:13;7.63;;;4.35;;
60088;SDS011;45961;53.574;55.878;2023-06-22T00:58:16;5.68;;;4.13;;
60088;SDS011;45961;53.574;55.878;2023-06-22T00:59:23;8.45;;;4.13;;
60088;SDS011;45961;53.574;55.878;2023-06-22T01:00:25;9.15;;;4.18;;
60088;SDS011;45961;53.574;55.878;2023-06-22T01:01:27;8.65;;;4.85;;
60088;SDS011;45961;53.574;55.878;2023-06-22T01:02:30;6.28;;;3.90;;
60088;SDS011;45961;53.574;55.878;2023-06-22T01:03:32;6.60;;;3.90;;
60088;SDS011;45961;53.574;55.878;2023-06-22T01:04:36;6.90;;;4.93;;
60088;SDS011;45961;53.574;55.878;2023-06-22T01:05:40;7.75;;;4.70;;
60088;SDS011;45961;53.574;55.878;2023-06-22T01:06:45;4.72;;;3.63;;
60088;SDS011;45961;53.574;55.878;2023-06-22T01:09:06;5.82;;;4.15;;
60088;SDS011;45961;53.574;55.878;2023-06-22T01:10:21;5.05;;;4.18;;
60088;SDS011;45961;53.574;55.878;2023-06-22T01:11:39;6.28;;;4.55;;
60088;SDS011;45961;53.574;55.878;2023-06-22T01:12:48;6.15;;;3.80;;
60088;SDS011;45961;53.574;55.878;2023-06-22T01:15:03;4.72;;;3.63;;
60088;SDS011;45961;53.574;55.878;2023-06-22T01:16:18;5.28;;;3.88;;
60088;SDS011;45961;53.574;55.878;2023-06-22T01:17:26;6.40;;;3.70;;
60088;SDS011;45961;53.574;55.878;2023-06-22T01:18:28;4.90;;;3.80;;
60088;SDS011;45961;53.574;55.878;2023-06-22T01:19:35;5.95;;;4.32;;
60088;SDS011;45961;53.574;55.878;2023-06-22T01:20:38;5.30;;;3.60;;
60088;SDS011;45961;53.574;55.878;2023-06-22T01:21:41;5.80;;;4.05;;
60088;SDS011;45961;53.574;55.878;2023-06-22T01:22:46;6.07;;;4.13;;
60088;SDS011;45961;53.574;55.878;2023-06-22T01:25:21;5.95;;;4.03;;
60088;SDS011;45961;53.574;55.878;2023-06-22T01:26:42;6.00;;;4.60;;
60088;SDS011;45961;53.574;55.878;2023-06-22T01:29:37;5.45;;;3.80;;
60088;SDS011;45961;53.574;55.878;2023-06-22T01:30:41;5.28;;;4.28;;
60088;SDS011;45961;53.574;55.878;2023-06-22T01:31:43;5.43;;;4.07;;
60088;SDS011;45961;53.574;55.878;2023-06-22T01:32:46;6.97;;;4.20;;
60088;SDS011;45961;53.574;55.878;2023-06-22T01:33:50;6.00;;;4.15;;
60088;SDS011;45961;53.574;55.878;2023-06-22T01:34:55;4.85;;;3.90;;
60088;SDS011;45961;53.574;55.878;2023-06-22T01:35:58;4.80;;;4.30;;
60088;SDS011;45961;53.574;55.878;2023-06-22T01:37:00;6.80;;;3.85;;
60088;SDS011;45961;53.574;55.878;2023-06-22T01:38:04;5.82;;;3.70;;
60088;SDS011;45961;53.574;55.878;2023-06-22T01:39:06;6.03;;;3.70;;
60088;SDS011;45961;53.574;55.878;2023-06-22T01:40:08;6.25;;;4.25;;
60088;SDS011;45961;53.574;55.878;2023-06-22T01:41:10;5.55;;;4.60;;
60088;SDS011;45961;53.574;55.878;2023-06-22T01:42:13;4.63;;;3.95;;
60088;SDS011;45961;53.574;55.878;2023-06-22T01:43:14;5.78;;;4.07;;
60088;SDS011;45961;53.574;55.878;2023-06-22T01:44:16;4.97;;;4.10;;
60088;SDS011;45961;53.574;55.878;2023-06-22T01:45:18;4.90;;;4.40;;
60088;SDS011;45961;53.574;55.878;2023-06-22T01:46:20;6.65;;;3.95;;
60088;SDS011;45961;53.574;55.878;2023-06-22T01:47:21;5.38;;;3.97;;
60088;SDS011;45961;53.574;55.878;2023-06-22T01:48:23;4.93;;;4.22;;
60088;SDS011;45961;53.574;55.878;2023-06-22T01:49:26;5.20;;;4.35;;
60088;SDS011;45961;53.574;55.878;2023-06-22T01:50:28;7.68;;;4.70;;
60088;SDS011;45961;53.574;55.878;2023-06-22T01:51:30;6.90;;;4.20;;
60088;SDS011;45961;53.574;55.878;2023-06-22T01:52:34;10.40;;;4.00;;
60088;SDS011;45961;53.574;55.878;2023-06-22T01:53:35;5.78;;;4.50;;
60088;SDS011;45961;53.574;55.878;2023-06-22T01:54:37;5.65;;;4.18;;
60088;SDS011;45961;53.574;55.878;2023-06-22T01:55:38;11.63;;;4.18;;
60088;SDS011;45961;53.574;55.878;2023-06-22T01:57:40;6.07;;;4.00;;
60088;SDS011;45961;53.574;55.878;2023-06-22T01:58:44;5.20;;;4.70;;
60088;SDS011;45961;53.574;55.878;2023-06-22T02:00:02;7.90;;;4.63;;
60088;SDS011;45961;53.574;55.878;2023-06-22T02:01:24;8.02;;;4.95;;
60088;SDS011;45961;53.574;55.878;2023-06-22T02:02:40;7.30;;;4.85;;
60088;SDS011;45961;53.574;55.878;2023-06-22T02:03:56;5.63;;;4.60;;
60088;SDS011;45961;53.574;55.878;2023-06-22T02:05:05;4.88;;;4.25;;
60088;SDS011;45961;53.574;55.878;2023-06-22T02:06:08;4.93;;;4.18;;
60088;SDS011;45961;53.574;55.878;2023-06-22T02:07:15;4.78;;;3.72;;
60088;SDS011;45961;53.574;55.878;2023-06-22T02:08:22;5.07;;;4.47;;
60088;SDS011;45961;53.574;55.878;2023-06-22T02:09:26;6.03;;;4.28;;
60088;SDS011;45961;53.574;55.878;2023-06-22T02:10:30;5.55;;;4.63;;
60088;SDS011;45961;53.574;55.878;2023-06-22T02:11:33;5.97;;;4.53;;
60088;SDS011;45961;53.574;55.878;2023-06-22T02:12:35;6.40;;;4.50;;
60088;SDS011;45961;53.574;55.878;2023-06-22T02:13:37;5.82;;;4.43;;
60088;SDS011;45961;53.574;55.878;2023-06-22T02:14:44;4.70;;;4.13;;
60088;SDS011;45961;53.574;55.878;2023-06-22T02:15:47;4.07;;;3.42;;
60088;SDS011;45961;53.574;55.878;2023-06-22T02:16:49;4.88;;;3.60;;
60088;SDS011;45961;53.574;55.878;2023-06-22T02:17:54;3.88;;;3.35;;
60088;SDS011;45961;53.574;55.878;2023-06-22T02:19:16;5.75;;;4.05;;
60088;SDS011;45961;53.574;55.878;2023-06-22T02:20:18;5.03;;;4.15;;
60088;SDS011;45961;53.574;55.878;2023-06-22T02:21:21;5.45;;;3.78;;
60088;SDS011;45961;53.574;55.878;2023-06-22T02:22:22;5.28;;;3.38;;
60088;SDS011;45961;53.574;55.878;2023-06-22T02:23:24;5.40;;;4.90;;
60088;SDS011;45961;53.574;55.878;2023-06-22T02:24:25;4.40;;;3.67;;
60088;SDS011;45961;53.574;55.878;2023-06-22T02:25:26;4.88;;;3.70;;
60088;SDS011;45961;53.574;55.878;2023-06-22T02:26:27;6.32;;;3.85;;
60088;SDS011;45961;53.574;55.878;2023-06-22T02:27:28;5.18;;;3.65;;
60088;SDS011;45961;53.574;55.878;2023-06-22T02:28:29;4.80;;;3.70;;
60088;SDS011;45961;53.574;55.878;2023-06-22T02:29:30;5.15;;;4.10;;
60088;SDS011;45961;53.574;55.878;2023-06-22T02:30:31;5.03;;;3.45;;
60088;SDS011;45961;53.574;55.878;2023-06-22T02:31:33;4.47;;;3.40;;
60088;SDS011;45961;53.574;55.878;2023-06-22T02:32:34;6.50;;;4.10;;
60088;SDS011;45961;53.574;55.878;2023-06-22T02:33:36;5.63;;;4.00;;
60088;SDS011;45961;53.574;55.878;2023-06-22T02:34:37;8.27;;;3.42;;
60088;SDS011;45961;53.574;55.878;2023-06-22T02:35:37;4.82;;;3.58;;
60088;SDS011;45961;53.574;55.878;2023-06-22T02:36:40;4.72;;;3.65;;
60088;SDS011;45961;53.574;55.878;2023-06-22T02:37:51;4.53;;;3.47;;
60088;SDS011;45961;53.574;55.878;2023-06-22T02:39:55;4.65;;;3.35;;
60088;SDS011;45961;53.574;55.878;2023-06-22T02:41:59;4.05;;;3.67;;
60088;SDS011;45961;53.574;55.878;2023-06-22T02:43:00;5.18;;;3.30;;
60088;SDS011;45961;53.574;55.878;2023-06-22T02:44:04;3.85;;;3.20;;
60088;SDS011;45961;53.574;55.878;2023-06-22T02:45:05;4.15;;;3.58;;
60088;SDS011;45961;53.574;55.878;2023-06-22T02:46:07;6.53;;;4.13;;
60088;SDS011;45961;53.574;55.878;2023-06-22T02:47:08;4.70;;;4.20;;
60088;SDS011;45961;53.574;55.878;2023-06-22T02:48:10;5.93;;;4.72;;
60088;SDS011;45961;53.574;55.878;2023-06-22T02:49:11;5.20;;;3.90;;
60088;SDS011;45961;53.574;55.878;2023-06-22T02:50:13;5.93;;;4.63;;
60088;SDS011;45961;53.574;55.878;2023-06-22T02:51:14;5.97;;;4.60;;
60088;SDS011;45961;53.574;55.878;2023-06-22T02:52:19;7.63;;;5.22;;
60088;SDS011;45961;53.574;55.878;2023-06-22T02:53:20;7.20;;;4.50;;
60088;SDS011;45961;53.574;55.878;2023-06-22T02:54:22;7.05;;;4.82;;
60088;SDS011;45961;53.574;55.878;2023-06-22T02:55:26;7.60;;;4.70;;
60088;SDS011;45961;53.574;55.878;2023-06-22T02:56:52;6.85;;;4.63;;
60088;SDS011;45961;53.574;55.878;2023-06-22T02:57:54;11.07;;;4.72;;
60088;SDS011;45961;53.574;55.878;2023-06-22T02:58:56;6.38;;;4.45;;
60088;SDS011;45961;53.574;55.878;2023-06-22T03:00:12;8.15;;;4.50;;
60088;SDS011;45961;53.574;55.878;2023-06-22T03:01:21;5.70;;;4.15;;
60088;SDS011;45961;53.574;55.878;2023-06-22T03:02:24;9.57;;;4.47;;
60088;SDS011;45961;53.574;55.878;2023-06-22T03:03:26;6.55;;;4.38;;
60088;SDS011;45961;53.574;55.878;2023-06-22T03:04:27;8.57;;;4.07;;
60088;SDS011;45961;53.574;55.878;2023-06-22T03:05:28;6.80;;;4.70;;
60088;SDS011;45961;53.574;55.878;2023-06-22T03:06:31;5.22;;;3.90;;
60088;SDS011;45961;53.574;55.878;2023-06-22T03:07:33;8.10;;;4.20;;
60088;SDS011;45961;53.574;55.878;2023-06-22T03:08:34;4.45;;;3.67;;
60088;SDS011;45961;53.574;55.878;2023-06-22T03:09:35;6.03;;;4.38;;
60088;SDS011;45961;53.574;55.878;2023-06-22T03:10:36;6.53;;;3.85;;
60088;SDS011;45961;53.574;55.878;2023-06-22T03:11:38;8.35;;;3.95;;
60088;SDS011;45961;53.574;55.878;2023-06-22T03:12:39;5.47;;;4.07;;
60088;SDS011;45961;53.574;55.878;2023-06-22T03:13:41;5.65;;;4.05;;
60088;SDS011;45961;53.574;55.878;2023-06-22T03:15:43;6.10;;;3.60;;
60088;SDS011;45961;53.574;55.878;2023-06-22T03:16:45;5.55;;;4.00;;
60088;SDS011;45961;53.574;55.878;2023-06-22T03:18:47;6.25;;;4.07;;
60088;SDS011;45961;53.574;55.878;2023-06-22T03:20:50;9.48;;;3.60;;
60088;SDS011;45961;53.574;55.878;2023-06-22T03:21:51;7.50;;;4.20;;
60088;SDS011;45961;53.574;55.878;2023-06-22T03:22:52;5.90;;;4.05;;
60088;SDS011;45961;53.574;55.878;2023-06-22T03:24:54;6.20;;;4.25;;
60088;SDS011;45961;53.574;55.878;2023-06-22T03:25:55;7.05;;;4.68;;
60088;SDS011;45961;53.574;55.878;2023-06-22T03:26:56;4.78;;;3.60;;
60088;SDS011;45961;53.574;55.878;2023-06-22T03:27:57;8.63;;;4.22;;
60088;SDS011;45961;53.574;55.878;2023-06-22T03:29:00;6.30;;;4.00;;
60088;SDS011;45961;53.574;55.878;2023-06-22T03:30:03;6.00;;;4.18;;
60088;SDS011;45961;53.574;55.878;2023-06-22T03:31:05;4.00;;;3.58;;
60088;SDS011;45961;53.574;55.878;2023-06-22T03:32:08;5.95;;;4.00;;
60088;SDS011;45961;53.574;55.878;2023-06-22T03:33:09;4.78;;;4.20;;
60088;SDS011;45961;53.574;55.878;2023-06-22T03:34:10;6.05;;;4.35;;
60088;SDS011;45961;53.574;55.878;2023-06-22T03:35:11;6.63;;;4.20;;
60088;SDS011;45961;53.574;55.878;2023-06-22T03:36:15;5.30;;;3.88;;
60088;SDS011;45961;53.574;55.878;2023-06-22T03:37:19;6.43;;;4.05;;
60088;SDS011;45961;53.574;55.878;2023-06-22T03:38:21;4.82;;;3.88;;
60088;SDS011;45961;53.574;55.878;2023-06-22T03:40:23;4.47;;;3.50;;
60088;SDS011;45961;53.574;55.878;2023-06-22T03:41:25;4.57;;;3.38;;
60088;SDS011;45961;53.574;55.878;2023-06-22T03:42:26;4.88;;;3.80;;
60088;SDS011;45961;53.574;55.878;2023-06-22T03:43:27;5.10;;;3.97;;
60088;SDS011;45961;53.574;55.878;2023-06-22T03:44:30;5.85;;;4.10;;
60088;SDS011;45961;53.574;55.878;2023-06-22T03:45:32;5.63;;;3.65;;
60088;SDS011;45961;53.574;55.878;2023-06-22T03:46:33;4.93;;;3.63;;
60088;SDS011;45961;53.574;55.878;2023-06-22T03:47:34;6.05;;;3.72;;
60088;SDS011;45961;53.574;55.878;2023-06-22T03:48:35;4.50;;;3.72;;
60088;SDS011;45961;53.574;55.878;2023-06-22T03:50:38;7.07;;;3.83;;
60088;SDS011;45961;53.574;55.878;2023-06-22T03:51:39;4.93;;;3.58;;
60088;SDS011;45961;53.574;55.878;2023-06-22T03:52:40;5.53;;;3.85;;
60088;SDS011;45961;53.574;55.878;2023-06-22T03:53:41;3.75;;;3.42;;
60088;SDS011;45961;53.574;55.878;2023-06-22T03:54:42;8.45;;;3.70;;
60088;SDS011;45961;53.574;55.878;2023-06-22T03:55:50;4.82;;;3.90;;
60088;SDS011;45961;53.574;55.878;2023-06-22T03:56:52;6.05;;;3.70;;
60088;SDS011;45961;53.574;55.878;2023-06-22T03:57:53;7.45;;;3.55;;
60088;SDS011;45961;53.574;55.878;2023-06-22T03:58:57;3.63;;;3.28;;
60088;SDS011;45961;53.574;55.878;2023-06-22T03:59:58;4.25;;;3.22;;
60088;SDS011;45961;53.574;55.878;2023-06-22T04:00:59;6.75;;;4.20;;
60088;SDS011;45961;53.574;55.878;2023-06-22T04:02:00;4.45;;;3.55;;
60088;SDS011;45961;53.574;55.878;2023-06-22T04:03:01;4.75;;;3.60;;
60088;SDS011;45961;53.574;55.878;2023-06-22T04:04:02;3.85;;;3.05;;
60088;SDS011;45961;53.574;55.878;2023-06-22T04:05:04;4.68;;;3.78;;
60088;SDS011;45961;53.574;55.878;2023-06-22T04:06:05;4.30;;;3.55;;
60088;SDS011;45961;53.574;55.878;2023-06-22T04:07:06;4.18;;;3.47;;
60088;SDS011;45961;53.574;55.878;2023-06-22T04:08:08;4.28;;;3.40;;
60088;SDS011;45961;53.574;55.878;2023-06-22T04:09:09;4.78;;;3.38;;
60088;SDS011;45961;53.574;55.878;2023-06-22T04:10:10;3.72;;;3.42;;
60088;SDS011;45961;53.574;55.878;2023-06-22T04:11:11;3.67;;;3.08;;
60088;SDS011;45961;53.574;55.878;2023-06-22T04:12:12;4.60;;;3.63;;
60088;SDS011;45961;53.574;55.878;2023-06-22T04:13:13;5.20;;;3.47;;
60088;SDS011;45961;53.574;55.878;2023-06-22T04:14:14;6.53;;;3.40;;
60088;SDS011;45961;53.574;55.878;2023-06-22T04:15:15;6.30;;;4.05;;
60088;SDS011;45961;53.574;55.878;2023-06-22T04:16:16;6.35;;;3.60;;
60088;SDS011;45961;53.574;55.878;2023-06-22T04:17:17;4.38;;;3.97;;
60088;SDS011;45961;53.574;55.878;2023-06-22T04:18:22;4.07;;;3.42;;
60088;SDS011;45961;53.574;55.878;2023-06-22T04:19:23;5.00;;;3.88;;
60088;SDS011;45961;53.574;55.878;2023-06-22T04:20:24;4.97;;;3.72;;
60088;SDS011;45961;53.574;55.878;2023-06-22T04:21:28;5.45;;;4.05;;
60088;SDS011;45961;53.574;55.878;2023-06-22T04:22:29;4.97;;;3.80;;
60088;SDS011;45961;53.574;55.878;2023-06-22T04:23:30;5.38;;;3.22;;
60088;SDS011;45961;53.574;55.878;2023-06-22T04:24:31;4.15;;;3.45;;
60088;SDS011;45961;53.574;55.878;2023-06-22T04:25:32;4.50;;;3.53;;
60088;SDS011;45961;53.574;55.878;2023-06-22T04:26:34;5.25;;;3.60;;
60088;SDS011;45961;53.574;55.878;2023-06-22T04:27:40;6.60;;;3.75;;
60088;SDS011;45961;53.574;55.878;2023-06-22T04:28:41;4.28;;;3.38;;
60088;SDS011;45961;53.574;55.878;2023-06-22T04:29:42;4.53;;;3.20;;
60088;SDS011;45961;53.574;55.878;2023-06-22T04:30:49;5.25;;;3.40;;
60088;SDS011;45961;53.574;55.878;2023-06-22T04:31:51;5.25;;;3.25;;
60088;SDS011;45961;53.574;55.878;2023-06-22T04:32:52;5.43;;;3.60;;
60088;SDS011;45961;53.574;55.878;2023-06-22T04:33:59;6.75;;;4.05;;
60088;SDS011;45961;53.574;55.878;2023-06-22T04:35:06;5.15;;;3.60;;
60088;SDS011;45961;53.574;55.878;2023-06-22T04:37:08;4.82;;;3.78;;
60088;SDS011;45961;53.574;55.878;2023-06-22T04:38:11;8.20;;;3.88;;
60088;SDS011;45961;53.574;55.878;2023-06-22T04:39:14;6.80;;;3.83;;
60088;SDS011;45961;53.574;55.878;2023-06-22T04:40:15;4.90;;;4.00;;
60088;SDS011;45961;53.574;55.878;2023-06-22T04:41:17;6.05;;;3.60;;
60088;SDS011;45961;53.574;55.878;2023-06-22T04:42:27;4.43;;;3.58;;
60088;SDS011;45961;53.574;55.878;2023-06-22T04:43:28;5.28;;;3.75;;
60088;SDS011;45961;53.574;55.878;2023-06-22T04:44:31;5.72;;;3.75;;
60088;SDS011;45961;53.574;55.878;2023-06-22T04:45:32;5.47;;;3.65;;
60088;SDS011;45961;53.574;55.878;2023-06-22T04:46:34;4.20;;;3.80;;
60088;SDS011;45961;53.574;55.878;2023-06-22T04:47:41;4.47;;;3.20;;
60088;SDS011;45961;53.574;55.878;2023-06-22T04:48:42;4.15;;;3.40;;
60088;SDS011;45961;53.574;55.878;2023-06-22T04:49:43;4.25;;;3.15;;
60088;SDS011;45961;53.574;55.878;2023-06-22T04:50:44;5.15;;;3.10;;
60088;SDS011;45961;53.574;55.878;2023-06-22T04:51:45;4.75;;;3.78;;
60088;SDS011;45961;53.574;55.878;2023-06-22T04:52:46;5.05;;;3.90;;
60088;SDS011;45961;53.574;55.878;2023-06-22T04:53:48;5.43;;;3.53;;
60088;SDS011;45961;53.574;55.878;2023-06-22T04:54:49;5.32;;;3.60;;
60088;SDS011;45961;53.574;55.878;2023-06-22T04:55:55;5.55;;;3.50;;
60088;SDS011;45961;53.574;55.878;2023-06-22T04:56:56;5.05;;;3.67;;
60088;SDS011;45961;53.574;55.878;2023-06-22T04:57:57;5.43;;;3.60;;
60088;SDS011;45961;53.574;55.878;2023-06-22T04:59:05;6.15;;;3.65;;
60088;SDS011;45961;53.574;55.878;2023-06-22T05:00:07;8.45;;;3.58;;
60088;SDS011;45961;53.574;55.878;2023-06-22T05:01:17;6.05;;;3.22;;
60088;SDS011;45961;53.574;55.878;2023-06-22T05:02:18;4.05;;;3.65;;
60088;SDS011;45961;53.574;55.878;2023-06-22T05:03:19;5.13;;;3.35;;
60088;SDS011;45961;53.574;55.878;2023-06-22T05:04:21;5.72;;;3.00;;
60088;SDS011;45961;53.574;55.878;2023-06-22T05:05:23;6.45;;;3.58;;
60088;SDS011;45961;53.574;55.878;2023-06-22T05:07:27;7.80;;;3.53;;
60088;SDS011;45961;53.574;55.878;2023-06-22T05:08:28;4.03;;;3.60;;
60088;SDS011;45961;53.574;55.878;2023-06-22T05:09:29;5.75;;;3.60;;
60088;SDS011;45961;53.574;55.878;2023-06-22T05:11:31;3.40;;;3.07;;
60088;SDS011;45961;53.574;55.878;2023-06-22T05:12:32;6.43;;;3.50;;
60088;SDS011;45961;53.574;55.878;2023-06-22T05:13:33;5.00;;;3.38;;
60088;SDS011;45961;53.574;55.878;2023-06-22T05:14:34;4.70;;;3.30;;
60088;SDS011;45961;53.574;55.878;2023-06-22T05:15:35;4.03;;;3.35;;
60088;SDS011;45961;53.574;55.878;2023-06-22T05:16:41;4.40;;;3.78;;
60088;SDS011;45961;53.574;55.878;2023-06-22T05:17:43;5.30;;;3.05;;
60088;SDS011;45961;53.574;55.878;2023-06-22T05:18:45;4.85;;;3.20;;
60088;SDS011;45961;53.574;55.878;2023-06-22T05:19:46;5.43;;;3.55;;
60088;SDS011;45961;53.574;55.878;2023-06-22T05:20:50;4.68;;;3.10;;
60088;SDS011;45961;53.574;55.878;2023-06-22T05:21:51;5.07;;;3.60;;
60088;SDS011;45961;53.574;55.878;2023-06-22T05:22:52;3.55;;;3.25;;
60088;SDS011;45961;53.574;55.878;2023-06-22T05:23:53;5.43;;;3.65;;
60088;SDS011;45961;53.574;55.878;2023-06-22T05:24:55;4.18;;;3.22;;
60088;SDS011;45961;53.574;55.878;2023-06-22T05:25:56;5.00;;;3.13;;
60088;SDS011;45961;53.574;55.878;2023-06-22T05:26:58;4.65;;;4.07;;
60088;SDS011;45961;53.574;55.878;2023-06-22T05:27:59;3.80;;;3.50;;
60088;SDS011;45961;53.574;55.878;2023-06-22T05:29:00;3.65;;;3.08;;
60088;SDS011;45961;53.574;55.878;2023-06-22T05:30:03;3.85;;;3.30;;
60088;SDS011;45961;53.574;55.878;2023-06-22T05:31:04;3.92;;;3.42;;
60088;SDS011;45961;53.574;55.878;2023-06-22T05:32:05;3.63;;;2.88;;
60088;SDS011;45961;53.574;55.878;2023-06-22T05:33:07;4.40;;;3.10;;
60088;SDS011;45961;53.574;55.878;2023-06-22T05:34:08;3.25;;;2.75;;
60088;SDS011;45961;53.574;55.878;2023-06-22T05:35:09;4.97;;;3.35;;
60088;SDS011;45961;53.574;55.878;2023-06-22T05:36:10;5.28;;;3.20;;
60088;SDS011;45961;53.574;55.878;2023-06-22T05:37:11;3.65;;;2.92;;
60088;SDS011;45961;53.574;55.878;2023-06-22T05:38:13;3.33;;;2.95;;
60088;SDS011;45961;53.574;55.878;2023-06-22T05:39:14;7.15;;;3.20;;
60088;SDS011;45961;53.574;55.878;2023-06-22T05:40:16;3.33;;;2.90;;
60088;SDS011;45961;53.574;55.878;2023-06-22T05:41:17;4.28;;;3.10;;
60088;SDS011;45961;53.574;55.878;2023-06-22T05:43:19;2.78;;;2.55;;
60088;SDS011;45961;53.574;55.878;2023-06-22T05:44:20;5.30;;;3.22;;
60088;SDS011;45961;53.574;55.878;2023-06-22T05:45:23;5.38;;;3.15;;
60088;SDS011;45961;53.574;55.878;2023-06-22T05:46:24;2.92;;;2.40;;
60088;SDS011;45961;53.574;55.878;2023-06-22T05:47:25;3.20;;;2.80;;
60088;SDS011;45961;53.574;55.878;2023-06-22T05:48:27;6.35;;;3.00;;
60088;SDS011;45961;53.574;55.878;2023-06-22T05:49:28;2.65;;;2.45;;
60088;SDS011;45961;53.574;55.878;2023-06-22T05:50:33;3.13;;;2.45;;
60088;SDS011;45961;53.574;55.878;2023-06-22T05:51:34;4.15;;;2.90;;
60088;SDS011;45961;53.574;55.878;2023-06-22T05:52:35;4.18;;;2.95;;
60088;SDS011;45961;53.574;55.878;2023-06-22T05:53:36;5.38;;;2.80;;
60088;SDS011;45961;53.574;55.878;2023-06-22T05:54:37;3.65;;;2.80;;
60088;SDS011;45961;53.574;55.878;2023-06-22T05:55:39;3.10;;;2.80;;
60088;SDS011;45961;53.574;55.878;2023-06-22T05:56:41;3.15;;;2.88;;
60088;SDS011;45961;53.574;55.878;2023-06-22T05:57:41;3.33;;;2.60;;
60088;SDS011;45961;53.574;55.878;2023-06-22T05:58:42;8.02;;;2.90;;
60088;SDS011;45961;53.574;55.878;2023-06-22T05:59:43;2.97;;;2.47;;
60088;SDS011;45961;53.574;55.878;2023-06-22T06:00:44;5.55;;;2.90;;
60088;SDS011;45961;53.574;55.878;2023-06-22T06:01:46;3.15;;;2.45;;
60088;SDS011;45961;53.574;55.878;2023-06-22T06:02:50;2.90;;;2.70;;
60088;SDS011;45961;53.574;55.878;2023-06-22T06:03:52;5.40;;;3.10;;
60088;SDS011;45961;53.574;55.878;2023-06-22T06:04:53;4.60;;;2.70;;
60088;SDS011;45961;53.574;55.878;2023-06-22T06:06:55;4.40;;;2.83;;
60088;SDS011;45961;53.574;55.878;2023-06-22T06:07:57;5.00;;;2.78;;
60088;SDS011;45961;53.574;55.878;2023-06-22T06:08:58;6.07;;;2.95;;
60088;SDS011;45961;53.574;55.878;2023-06-22T06:11:00;4.10;;;2.60;;
60088;SDS011;45961;53.574;55.878;2023-06-22T06:12:01;7.55;;;2.63;;
60088;SDS011;45961;53.574;55.878;2023-06-22T06:13:03;4.13;;;2.80;;
60088;SDS011;45961;53.574;55.878;2023-06-22T06:14:07;4.63;;;2.72;;
60088;SDS011;45961;53.574;55.878;2023-06-22T06:15:08;3.78;;;2.63;;
60088;SDS011;45961;53.574;55.878;2023-06-22T06:16:09;3.17;;;2.88;;
60088;SDS011;45961;53.574;55.878;2023-06-22T06:17:10;5.00;;;2.88;;
60088;SDS011;45961;53.574;55.878;2023-06-22T06:18:13;4.45;;;2.80;;
60088;SDS011;45961;53.574;55.878;2023-06-22T06:19:14;4.47;;;2.75;;
60088;SDS011;45961;53.574;55.878;2023-06-22T06:20:19;3.42;;;2.63;;
60088;SDS011;45961;53.574;55.878;2023-06-22T06:21:22;3.60;;;2.50;;
60088;SDS011;45961;53.574;55.878;2023-06-22T06:22:23;3.17;;;2.47;;
60088;SDS011;45961;53.574;55.878;2023-06-22T06:23:24;6.78;;;2.50;;
60088;SDS011;45961;53.574;55.878;2023-06-22T06:24:25;5.72;;;2.85;;
60088;SDS011;45961;53.574;55.878;2023-06-22T06:25:27;5.82;;;2.70;;
60088;SDS011;45961;53.574;55.878;2023-06-22T06:27:29;8.05;;;3.00;;
60088;SDS011;45961;53.574;55.878;2023-06-22T06:28:31;4.40;;;2.55;;
60088;SDS011;45961;53.574;55.878;2023-06-22T06:29:32;5.35;;;2.95;;
60088;SDS011;45961;53.574;55.878;2023-06-22T06:30:33;4.95;;;2.65;;
60088;SDS011;45961;53.574;55.878;2023-06-22T06:31:35;4.93;;;2.53;;
60088;SDS011;45961;53.574;55.878;2023-06-22T06:33:38;4.70;;;2.70;;
60088;SDS011;45961;53.574;55.878;2023-06-22T06:34:39;5.60;;;2.97;;
60088;SDS011;45961;53.574;55.878;2023-06-22T06:35:41;4.63;;;2.50;;